Terminal Aerodrome Forecast
Issued by NWS

Home | Current Version | Previous Version | Text Only | Print | Product List | Glossary On
Versions: 1 2 3 4 5 6 7 8 9 10 11 12 13 14 15 16 17 18
000
FTUS41 KBTV 081727
TAFMPV
TAF
KMPV 081727Z 0818/0918 26008KT P6SM VCSH OVC050
      TEMPO 0818/0822 2SM -SHSN OVC030
     FM082200 27009KT 5SM -SN BR OVC030
      TEMPO 0822/0824 2SM -SN BR OVC025
     FM090000 29009KT 2SM -SN BR BKN015 OVC025
     FM091400 31014KT 5SM -SN BR BKN025 OVC035=

USA.gov is the U.S. government's official web portal to all federal, state and local government web resources and services.